createdAt,value
2023-05-05T00:01:08.723Z,11.25
2023-05-05T00:03:35.680Z,11.31
2023-05-05T00:06:02.297Z,11.16
2023-05-05T00:08:28.835Z,11.22
2023-05-05T00:10:56.511Z,11.15
2023-05-05T00:13:23.598Z,11.07
2023-05-05T00:15:52.464Z,11.06
2023-05-05T00:18:19.824Z,11.00
2023-05-05T00:20:47.240Z,11.01
2023-05-05T00:23:17.398Z,10.92
2023-05-05T00:25:43.814Z,10.99
2023-05-05T00:28:10.500Z,10.91
2023-05-05T00:30:37.958Z,10.89
2023-05-05T00:33:04.510Z,10.85
2023-05-05T00:35:30.943Z,10.79
2023-05-05T00:37:58.141Z,10.74
2023-05-05T00:40:25.242Z,10.76
2023-05-05T00:42:52.118Z,10.69
2023-05-05T00:45:19.783Z,10.61
2023-05-05T00:47:52.434Z,10.59
2023-05-05T00:50:30.183Z,10.55
2023-05-05T00:53:00.389Z,10.52
2023-05-05T00:55:28.278Z,10.42
2023-05-05T00:57:55.114Z,10.51
2023-05-05T01:00:22.001Z,10.48
2023-05-05T01:02:48.599Z,10.40
2023-05-05T01:05:16.297Z,10.32
2023-05-05T01:08:20.959Z,10.30
2023-05-05T01:10:57.478Z,10.27
2023-05-05T01:13:39.764Z,10.24
2023-05-05T01:16:14.174Z,10.29
2023-05-05T01:18:47.584Z,10.28
2023-05-05T01:21:23.454Z,10.20
2023-05-05T01:24:22.561Z,10.19
2023-05-05T01:27:13.811Z,10.00
2023-05-05T01:30:03.278Z,9.94
2023-05-05T01:32:38.479Z,9.88
2023-05-05T01:35:18.180Z,9.87
2023-05-05T01:38:09.676Z,9.95
2023-05-05T01:40:45.117Z,9.80
2023-05-05T01:43:13.456Z,9.77
2023-05-05T01:45:42.749Z,9.68
2023-05-05T01:48:09.566Z,9.67
2023-05-05T01:50:36.795Z,9.76
2023-05-05T01:53:05.179Z,9.70
2023-05-05T01:55:32.516Z,9.69
2023-05-05T01:58:00.124Z,9.80
2023-05-05T02:00:27.309Z,9.73
2023-05-05T02:02:56.838Z,9.70
2023-05-05T02:05:24.890Z,9.72
2023-05-05T02:07:54.952Z,9.74
2023-05-05T02:10:21.539Z,9.76
2023-05-05T02:12:49.347Z,9.74
2023-05-05T02:15:16.809Z,9.73
2023-05-05T02:17:45.267Z,9.77
2023-05-05T02:20:13.940Z,9.76
2023-05-05T02:22:41.062Z,9.75
2023-05-05T02:25:08.652Z,9.82
2023-05-05T02:27:36.314Z,9.83
2023-05-05T02:30:09.775Z,9.76
2023-05-05T02:32:44.026Z,9.71
2023-05-05T02:35:26.736Z,9.79
2023-05-05T02:38:02.814Z,9.75
2023-05-05T02:40:31.690Z,9.74
2023-05-05T02:43:01.227Z,9.71
2023-05-05T02:45:28.646Z,9.73
2023-05-05T02:47:55.069Z,9.68
2023-05-05T02:50:21.550Z,9.73
2023-05-05T02:52:48.187Z,9.76
2023-05-05T02:55:15.582Z,9.74
2023-05-05T02:57:57.453Z,9.67
2023-05-05T03:00:29.786Z,9.70
2023-05-05T03:03:14.140Z,9.74
2023-05-05T03:05:55.821Z,9.69
2023-05-05T03:08:36.756Z,9.65
2023-05-05T03:11:11.320Z,9.66
2023-05-05T03:13:42.876Z,9.66
2023-05-05T03:16:10.820Z,9.61
2023-05-05T03:18:38.387Z,9.65
2023-05-05T03:21:08.816Z,9.63
2023-05-05T03:23:36.352Z,9.64
2023-05-05T03:26:02.900Z,9.61
2023-05-05T03:28:29.365Z,9.54
2023-05-05T03:30:56.189Z,9.59
2023-05-05T03:33:22.564Z,9.60
2023-05-05T03:35:49.208Z,9.57
2023-05-05T03:38:15.624Z,9.56
2023-05-05T03:40:44.542Z,9.47
2023-05-05T03:43:11.532Z,9.55
2023-05-05T03:45:38.455Z,9.45
2023-05-05T03:48:05.272Z,9.43
2023-05-05T03:50:31.781Z,9.38
2023-05-05T03:52:58.147Z,9.41
2023-05-05T03:55:24.613Z,9.39
2023-05-05T03:57:51.090Z,9.41
2023-05-05T04:00:18.004Z,9.39
2023-05-05T04:02:44.601Z,9.36
2023-05-05T04:05:11.017Z,9.40
2023-05-05T04:07:37.450Z,9.33
2023-05-05T04:10:03.955Z,9.34
2023-05-05T04:12:30.408Z,9.42
2023-05-05T04:14:56.802Z,9.39
2023-05-05T04:17:23.399Z,9.40
2023-05-05T04:19:49.824Z,9.33
2023-05-05T04:22:16.590Z,9.37
2023-05-05T04:24:42.983Z,9.46
2023-05-05T04:27:09.344Z,9.43
2023-05-05T04:29:36.045Z,9.36
2023-05-05T04:32:02.615Z,9.40
2023-05-05T04:34:29.010Z,9.40
2023-05-05T04:36:55.663Z,9.41
2023-05-05T04:39:22.170Z,9.44
2023-05-05T04:41:48.544Z,9.50
2023-05-05T04:44:14.905Z,9.63
2023-05-05T04:46:41.461Z,9.64
2023-05-05T04:49:09.122Z,9.69
2023-05-05T04:51:35.611Z,9.62
2023-05-05T04:54:02.161Z,9.64
2023-05-05T04:56:31.041Z,9.70
2023-05-05T04:58:57.403Z,9.86
2023-05-05T05:01:23.912Z,9.82
2023-05-05T05:03:51.040Z,9.78
2023-05-05T05:06:17.460Z,9.77
2023-05-05T05:08:43.817Z,9.75
2023-05-05T05:11:10.250Z,9.82
2023-05-05T05:13:36.646Z,9.89
2023-05-05T05:16:03.063Z,9.94
2023-05-05T05:18:29.427Z,9.98
2023-05-05T05:20:56.138Z,9.96
2023-05-05T05:23:22.491Z,9.94
2023-05-05T05:25:48.947Z,9.95
2023-05-05T05:28:15.628Z,9.97
2023-05-05T05:30:42.004Z,10.00
2023-05-05T05:33:08.443Z,10.13
2023-05-05T05:35:34.972Z,10.27
2023-05-05T05:38:01.425Z,10.37
2023-05-05T05:40:27.807Z,10.44
2023-05-05T05:42:54.235Z,10.58
2023-05-05T05:45:21.671Z,10.71
2023-05-05T05:47:48.051Z,10.70
2023-05-05T05:50:14.493Z,10.77
2023-05-05T05:52:41.008Z,10.81
2023-05-05T05:55:08.165Z,10.85
2023-05-05T05:57:34.539Z,10.88
2023-05-05T06:00:01.981Z,10.86
2023-05-05T06:02:28.922Z,10.85
2023-05-05T06:04:55.464Z,10.90
2023-05-05T06:07:21.885Z,10.97
2023-05-05T06:09:48.434Z,11.05
2023-05-05T06:12:14.978Z,11.15
2023-05-05T06:14:41.672Z,11.34
2023-05-05T06:17:08.140Z,11.44
2023-05-05T06:19:35.415Z,11.57
2023-05-05T06:22:02.024Z,11.76
2023-05-05T06:24:29.073Z,11.76
2023-05-05T06:26:55.450Z,11.88
2023-05-05T06:29:22.269Z,11.97
2023-05-05T06:31:48.681Z,12.05
2023-05-05T06:34:15.189Z,12.07
2023-05-05T06:36:41.620Z,12.14
2023-05-05T06:39:08.087Z,12.25
2023-05-05T06:41:34.457Z,12.31
2023-05-05T06:44:01.379Z,12.65
2023-05-05T06:46:27.775Z,12.56
2023-05-05T06:48:54.131Z,12.59
2023-05-05T06:51:20.905Z,12.83
2023-05-05T06:53:47.255Z,12.78
2023-05-05T06:56:14.701Z,12.87
2023-05-05T06:58:42.218Z,12.95
2023-05-05T07:01:08.780Z,13.07
2023-05-05T07:03:35.244Z,13.19
2023-05-05T07:06:01.659Z,13.24
2023-05-05T07:08:28.134Z,13.45
2023-05-05T07:10:54.541Z,13.54
2023-05-05T07:13:20.965Z,13.61
2023-05-05T07:15:47.390Z,13.71
2023-05-05T07:18:14.336Z,13.77
2023-05-05T07:20:40.810Z,13.84
2023-05-05T07:23:07.192Z,13.89
2023-05-05T07:25:33.913Z,14.10
2023-05-05T07:28:00.566Z,14.07
2023-05-05T07:30:27.090Z,14.10
2023-05-05T07:32:55.036Z,14.13
2023-05-05T07:35:21.730Z,14.25
2023-05-05T07:37:48.380Z,14.26
2023-05-05T07:40:15.074Z,14.33
2023-05-05T07:42:41.578Z,14.47
2023-05-05T07:45:08.438Z,14.54
2023-05-05T07:47:34.877Z,14.57
2023-05-05T07:50:01.492Z,14.62
2023-05-05T07:52:44.188Z,14.71
2023-05-05T07:55:12.775Z,14.79
2023-05-05T07:57:39.160Z,14.88
2023-05-05T08:00:06.327Z,14.98
2023-05-05T08:02:33.013Z,15.06
2023-05-05T08:04:59.428Z,15.18
2023-05-05T08:07:25.869Z,15.20
2023-05-05T08:09:52.341Z,15.29
2023-05-05T08:12:19.355Z,15.62
2023-05-05T08:14:45.829Z,15.57
2023-05-05T08:17:12.230Z,15.60
2023-05-05T08:19:38.695Z,15.60
2023-05-05T08:22:05.044Z,15.64
2023-05-05T08:24:31.464Z,15.72
2023-05-05T08:26:58.152Z,15.88
2023-05-05T08:29:24.546Z,15.98
2023-05-05T08:31:51.304Z,16.12
2023-05-05T08:34:17.717Z,16.10
2023-05-05T08:36:44.160Z,16.27
2023-05-05T08:39:10.744Z,16.40
2023-05-05T08:41:37.289Z,16.49
2023-05-05T08:44:03.884Z,16.60
2023-05-05T08:46:31.167Z,16.77
2023-05-05T08:48:58.671Z,16.88
2023-05-05T08:51:28.475Z,17.09
2023-05-05T08:53:54.953Z,17.24
2023-05-05T08:56:22.005Z,17.33
2023-05-05T08:58:49.465Z,17.33
2023-05-05T09:01:17.118Z,17.37
2023-05-05T09:03:46.740Z,17.48
2023-05-05T09:06:13.307Z,17.58
2023-05-05T09:08:39.941Z,17.62
2023-05-05T09:11:06.663Z,17.75
2023-05-05T09:13:33.309Z,17.73
2023-05-05T09:15:59.951Z,17.83
2023-05-05T09:18:26.831Z,17.99
2023-05-05T09:20:53.216Z,18.01
2023-05-05T09:23:20.891Z,18.08
2023-05-05T09:26:02.266Z,18.19
2023-05-05T09:28:28.919Z,18.24
2023-05-05T09:30:55.506Z,18.17
2023-05-05T09:33:31.335Z,18.09
2023-05-05T09:35:58.303Z,18.23
2023-05-05T09:38:25.291Z,18.28
2023-05-05T09:40:53.460Z,18.32
2023-05-05T09:43:21.894Z,18.34
2023-05-05T09:45:49.173Z,18.30
2023-05-05T09:48:29.959Z,18.40
2023-05-05T09:50:57.402Z,18.34
2023-05-05T09:53:25.093Z,18.33
2023-05-05T09:55:59.586Z,18.34
2023-05-05T09:58:27.736Z,18.29
2023-05-05T10:00:58.513Z,18.35
2023-05-05T10:03:25.607Z,18.45
2023-05-05T10:05:54.422Z,18.55
2023-05-05T10:08:23.215Z,18.72
2023-05-05T10:10:51.546Z,18.72
2023-05-05T10:13:20.713Z,18.80
2023-05-05T10:15:49.975Z,18.86
2023-05-05T10:18:20.250Z,18.85
2023-05-05T10:20:50.914Z,18.91
2023-05-05T10:23:20.346Z,18.94
2023-05-05T10:25:55.556Z,19.12
2023-05-05T10:29:03.133Z,19.26
2023-05-05T10:31:41.524Z,19.30
2023-05-05T10:34:17.500Z,19.34
2023-05-05T10:36:44.975Z,19.34
2023-05-05T10:39:11.879Z,19.43
2023-05-05T10:41:38.808Z,19.39
2023-05-05T10:44:06.683Z,19.46
2023-05-05T10:46:33.365Z,19.62
2023-05-05T10:49:16.158Z,19.67
2023-05-05T10:52:02.213Z,19.74
2023-05-05T10:54:55.757Z,19.87
2023-05-05T10:57:26.807Z,19.92
2023-05-05T10:59:53.475Z,19.96
2023-05-05T11:02:29.710Z,19.97
2023-05-05T11:05:18.221Z,20.01
2023-05-05T11:07:46.130Z,20.14
2023-05-05T11:10:14.435Z,20.18
2023-05-05T11:13:07.681Z,20.26
2023-05-05T11:15:37.486Z,20.33
2023-05-05T11:18:07.535Z,20.34
2023-05-05T11:20:39.480Z,20.49
2023-05-05T11:23:06.066Z,20.54
2023-05-05T11:25:36.018Z,20.59
2023-05-05T11:28:19.940Z,20.63
2023-05-05T11:30:55.830Z,20.62
2023-05-05T11:33:29.727Z,20.67
2023-05-05T11:35:56.213Z,20.65
2023-05-05T11:38:27.440Z,20.72
2023-05-05T11:41:05.719Z,20.75
2023-05-05T11:43:32.154Z,20.73
2023-05-05T11:46:12.384Z,20.72
2023-05-05T11:48:49.068Z,20.68
2023-05-05T11:51:19.209Z,20.65
2023-05-05T11:53:47.719Z,20.80
2023-05-05T11:56:22.361Z,20.83
2023-05-05T11:59:04.595Z,20.76
2023-05-05T12:01:31.040Z,20.67
2023-05-05T12:03:57.631Z,20.82
2023-05-05T12:06:24.156Z,20.83
2023-05-05T12:08:50.639Z,20.93
2023-05-05T12:11:17.200Z,20.96
2023-05-05T12:13:43.574Z,21.00
2023-05-05T12:16:14.847Z,21.14
2023-05-05T12:18:42.010Z,21.26
2023-05-05T12:21:18.196Z,21.31
2023-05-05T12:23:45.283Z,21.29
2023-05-05T12:26:28.886Z,21.27
2023-05-05T12:28:56.137Z,21.18
2023-05-05T12:31:22.670Z,21.19
2023-05-05T12:33:50.249Z,21.16
2023-05-05T12:36:16.868Z,21.19
2023-05-05T12:38:43.793Z,21.28
2023-05-05T12:41:10.162Z,21.32
2023-05-05T12:43:36.805Z,21.42
2023-05-05T12:46:11.069Z,21.39
2023-05-05T12:48:39.834Z,21.42
2023-05-05T12:51:16.220Z,21.49
2023-05-05T12:53:43.067Z,21.65
2023-05-05T12:56:31.777Z,21.71
2023-05-05T12:58:58.189Z,21.74
2023-05-05T13:01:25.177Z,21.69
2023-05-05T13:04:11.918Z,21.60
2023-05-05T13:06:45.988Z,21.77
2023-05-05T13:09:33.999Z,21.83
2023-05-05T13:12:02.790Z,22.05
2023-05-05T13:14:30.708Z,22.08
2023-05-05T13:16:57.719Z,22.04
2023-05-05T13:19:25.053Z,22.00
2023-05-05T13:21:55.532Z,22.02
2023-05-05T13:24:34.308Z,22.00
2023-05-05T13:27:09.167Z,21.99
2023-05-05T13:29:35.836Z,21.98
2023-05-05T13:32:02.246Z,22.03
2023-05-05T13:34:28.801Z,22.06
2023-05-05T13:36:55.257Z,22.07
2023-05-05T13:39:21.681Z,22.08
2023-05-05T13:41:48.059Z,21.96
2023-05-05T13:44:14.501Z,21.89
2023-05-05T13:46:44.324Z,21.89
2023-05-05T13:49:11.141Z,21.90
2023-05-05T13:51:38.941Z,21.88
2023-05-05T13:54:06.458Z,21.88
2023-05-05T13:56:33.755Z,21.84
2023-05-05T13:59:00.824Z,21.84
2023-05-05T14:01:27.505Z,21.88
2023-05-05T14:03:56.200Z,22.04
2023-05-05T14:06:23.580Z,22.10
2023-05-05T14:08:50.005Z,22.28
2023-05-05T14:11:20.322Z,22.41
2023-05-05T14:13:47.469Z,22.58
2023-05-05T14:16:13.939Z,22.53
2023-05-05T14:18:40.448Z,22.75
2023-05-05T14:21:06.854Z,22.87
2023-05-05T14:23:35.789Z,22.84
2023-05-05T14:26:02.130Z,22.71
2023-05-05T14:28:28.549Z,22.75
2023-05-05T14:30:54.989Z,22.83
2023-05-05T14:33:22.173Z,22.80
2023-05-05T14:35:48.679Z,22.73
2023-05-05T14:38:15.092Z,22.68
2023-05-05T14:40:41.553Z,22.72
2023-05-05T14:43:07.944Z,22.66
2023-05-05T14:45:34.450Z,22.71
2023-05-05T14:48:00.867Z,22.87
2023-05-05T14:50:27.299Z,22.90
2023-05-05T14:52:53.651Z,23.06
2023-05-05T14:55:20.020Z,23.09
2023-05-05T14:57:46.459Z,23.16
2023-05-05T15:00:13.269Z,23.15
2023-05-05T15:02:39.662Z,22.98
2023-05-05T15:05:07.274Z,22.86
2023-05-05T15:07:33.800Z,22.82
2023-05-05T15:10:00.212Z,22.70
2023-05-05T15:12:26.938Z,22.71
2023-05-05T15:14:53.340Z,22.71
2023-05-05T15:17:19.751Z,22.64
2023-05-05T15:19:46.221Z,22.60
2023-05-05T15:22:12.569Z,22.81
2023-05-05T15:24:39.266Z,22.81
2023-05-05T15:27:05.704Z,22.94
2023-05-05T15:29:32.103Z,22.82
2023-05-05T15:31:58.885Z,23.02
2023-05-05T15:34:26.164Z,23.10
2023-05-05T15:36:52.821Z,23.13
2023-05-05T15:39:19.254Z,23.19
2023-05-05T15:41:45.653Z,23.29
2023-05-05T15:44:12.361Z,23.33
2023-05-05T15:46:39.159Z,23.19
2023-05-05T15:49:05.602Z,23.20
2023-05-05T15:51:32.345Z,22.92
2023-05-05T15:53:59.405Z,22.79
2023-05-05T15:56:29.302Z,22.67
2023-05-05T15:58:56.633Z,22.55
2023-05-05T16:01:23.099Z,22.53
2023-05-05T16:03:49.543Z,22.43
2023-05-05T16:06:15.962Z,22.33
2023-05-05T16:08:42.315Z,22.26
2023-05-05T16:11:08.666Z,22.22
2023-05-05T16:13:35.365Z,22.25
2023-05-05T16:16:01.748Z,22.14
2023-05-05T16:18:28.148Z,22.15
2023-05-05T16:20:54.527Z,22.00
2023-05-05T16:23:21.044Z,21.90
2023-05-05T16:25:47.452Z,21.78
2023-05-05T16:28:13.800Z,21.84
2023-05-05T16:30:42.652Z,21.67
2023-05-05T16:33:09.063Z,21.60
2023-05-05T16:35:36.152Z,21.54
2023-05-05T16:38:02.527Z,21.57
2023-05-05T16:40:29.387Z,21.47
2023-05-05T16:42:55.764Z,21.37
2023-05-05T16:45:22.510Z,21.39
2023-05-05T16:47:49.063Z,21.25
2023-05-05T16:50:17.273Z,21.24
2023-05-05T16:52:43.658Z,21.15
2023-05-05T16:55:10.255Z,21.11
2023-05-05T16:57:36.750Z,21.04
2023-05-05T17:00:04.728Z,21.01
2023-05-05T17:02:31.262Z,20.94
2023-05-05T17:04:57.752Z,20.87
2023-05-05T17:07:24.202Z,20.85
2023-05-05T17:09:51.335Z,20.78
2023-05-05T17:12:17.787Z,20.75
2023-05-05T17:14:45.363Z,20.71
2023-05-05T17:17:11.942Z,20.67
2023-05-05T17:19:38.382Z,20.66
2023-05-05T17:22:04.882Z,20.63
2023-05-05T17:24:31.355Z,20.61
2023-05-05T17:26:58.340Z,20.58
2023-05-05T17:29:24.853Z,20.54
2023-05-05T17:31:51.633Z,20.50
2023-05-05T17:34:18.134Z,20.45
2023-05-05T17:36:44.597Z,20.43
2023-05-05T17:39:11.448Z,20.38
2023-05-05T17:41:37.826Z,20.36
2023-05-05T17:44:04.313Z,20.31
2023-05-05T17:46:30.752Z,20.34
2023-05-05T17:48:57.243Z,20.28
2023-05-05T17:51:23.698Z,20.22
2023-05-05T17:53:50.044Z,20.20
2023-05-05T17:56:16.407Z,20.18
2023-05-05T17:58:43.146Z,20.16
2023-05-05T18:01:13.507Z,20.14
2023-05-05T18:03:41.016Z,20.14
2023-05-05T18:06:07.709Z,20.03
2023-05-05T18:08:34.073Z,20.05
2023-05-05T18:11:00.438Z,19.94
2023-05-05T18:13:26.800Z,19.92
2023-05-05T18:15:53.180Z,19.85
2023-05-05T18:18:19.655Z,19.80
2023-05-05T18:20:46.465Z,19.78
2023-05-05T18:23:12.856Z,19.74
2023-05-05T18:25:39.219Z,19.70
2023-05-05T18:28:05.723Z,19.66
2023-05-05T18:30:32.768Z,19.52
2023-05-05T18:32:59.495Z,19.49
2023-05-05T18:35:26.016Z,19.47
2023-05-05T18:37:52.449Z,19.45
2023-05-05T18:40:18.871Z,19.45
2023-05-05T18:42:45.417Z,19.42
2023-05-05T18:45:11.892Z,19.29
2023-05-05T18:47:41.661Z,19.27
2023-05-05T18:50:09.874Z,19.23
2023-05-05T18:52:36.276Z,19.22
2023-05-05T18:55:02.680Z,19.16
2023-05-05T18:57:29.120Z,19.14
2023-05-05T18:59:55.499Z,19.10
2023-05-05T19:02:21.913Z,19.06
2023-05-05T19:04:48.317Z,19.01
2023-05-05T19:07:27.578Z,18.98
2023-05-05T19:10:00.556Z,18.94
2023-05-05T19:12:26.930Z,18.89
2023-05-05T19:14:53.329Z,18.90
2023-05-05T19:17:19.868Z,18.86
2023-05-05T19:19:46.552Z,18.80
2023-05-05T19:22:12.916Z,18.81
2023-05-05T19:24:39.331Z,18.79
2023-05-05T19:27:07.021Z,18.77
2023-05-05T19:29:33.748Z,18.68
2023-05-05T19:32:00.234Z,18.65
2023-05-05T19:34:26.912Z,18.63
2023-05-05T19:36:53.283Z,18.59
2023-05-05T19:39:19.655Z,18.57
2023-05-05T19:41:46.228Z,18.56
2023-05-05T19:44:12.573Z,18.53
2023-05-05T19:46:39.258Z,18.54
2023-05-05T19:49:06.324Z,18.52
2023-05-05T19:51:32.734Z,18.45
2023-05-05T19:53:59.465Z,18.41
2023-05-05T19:56:26.200Z,18.37
2023-05-05T19:58:58.822Z,18.35
2023-05-05T20:01:25.672Z,18.31
2023-05-05T20:03:55.262Z,18.30
2023-05-05T20:06:22.193Z,18.25
2023-05-05T20:08:48.530Z,18.21
2023-05-05T20:11:16.790Z,18.16
2023-05-05T20:13:43.305Z,18.19
2023-05-05T20:16:11.990Z,18.16
2023-05-05T20:18:38.708Z,18.14
2023-05-05T20:21:05.109Z,18.09
2023-05-05T20:23:31.899Z,18.14
2023-05-05T20:25:58.764Z,18.04
2023-05-05T20:28:25.344Z,18.04
2023-05-05T20:30:51.693Z,18.02
2023-05-05T20:33:18.082Z,18.01
2023-05-05T20:35:44.490Z,17.99
2023-05-05T20:38:11.162Z,18.03
2023-05-05T20:40:37.681Z,18.07
2023-05-05T20:43:04.230Z,18.08
2023-05-05T20:45:31.735Z,18.02
2023-05-05T20:47:58.668Z,17.98
2023-05-05T20:50:25.217Z,17.94
2023-05-05T20:52:51.589Z,17.91
2023-05-05T20:55:18.014Z,17.90
2023-05-05T20:57:44.381Z,17.88
2023-05-05T21:00:11.334Z,17.90
2023-05-05T21:02:37.983Z,17.89
2023-05-05T21:05:05.200Z,17.80
2023-05-05T21:07:35.448Z,17.77
2023-05-05T21:10:02.810Z,17.78
2023-05-05T21:12:29.913Z,17.79
2023-05-05T21:14:58.539Z,17.71
2023-05-05T21:17:28.985Z,17.65
2023-05-05T21:19:56.132Z,17.65
2023-05-05T21:22:22.524Z,17.67
2023-05-05T21:24:49.009Z,17.76
2023-05-05T21:27:15.467Z,17.63
2023-05-05T21:29:41.961Z,17.61
2023-05-05T21:32:10.243Z,17.63
2023-05-05T21:34:37.957Z,17.63
2023-05-05T21:37:05.056Z,17.63
2023-05-05T21:39:33.038Z,17.58
2023-05-05T21:42:00.557Z,17.56
2023-05-05T21:44:28.107Z,17.52
2023-05-05T21:46:54.924Z,17.46
2023-05-05T21:49:21.341Z,17.48
2023-05-05T21:51:47.675Z,17.44
2023-05-05T21:54:14.034Z,17.39
2023-05-05T21:56:40.526Z,17.46
2023-05-05T21:59:07.000Z,17.40
2023-05-05T22:01:33.414Z,17.36
2023-05-05T22:03:59.884Z,17.25
2023-05-05T22:06:26.274Z,17.27
2023-05-05T22:08:52.677Z,17.22
2023-05-05T22:11:19.121Z,17.28
2023-05-05T22:13:46.372Z,17.38
2023-05-05T22:16:12.864Z,17.35
2023-05-05T22:18:39.395Z,17.30
2023-05-05T22:21:05.999Z,17.24
2023-05-05T22:23:32.601Z,17.04
2023-05-05T22:25:59.012Z,17.00
2023-05-05T22:28:26.769Z,17.01
2023-05-05T22:30:53.199Z,16.96
2023-05-05T22:33:19.560Z,16.86
2023-05-05T22:35:46.266Z,16.80
2023-05-05T22:38:12.638Z,16.79
2023-05-05T22:40:39.208Z,16.83
2023-05-05T22:43:05.641Z,17.03
2023-05-05T22:45:32.150Z,16.86
2023-05-05T22:47:58.707Z,16.81
2023-05-05T22:50:25.341Z,16.69
2023-05-05T22:52:52.059Z,16.70
2023-05-05T22:55:18.436Z,16.58
2023-05-05T22:57:44.821Z,16.42
2023-05-05T23:00:11.455Z,16.41
2023-05-05T23:02:38.190Z,16.26
2023-05-05T23:05:04.952Z,16.32
2023-05-05T23:07:31.347Z,16.23
2023-05-05T23:09:58.008Z,16.33
2023-05-05T23:12:24.521Z,16.16
2023-05-05T23:14:51.075Z,15.84
2023-05-05T23:17:17.539Z,15.77
2023-05-05T23:19:47.556Z,15.62
2023-05-05T23:22:14.300Z,15.55
2023-05-05T23:24:40.676Z,15.36
2023-05-05T23:27:07.077Z,15.35
2023-05-05T23:29:33.455Z,15.23
2023-05-05T23:31:59.841Z,15.20
2023-05-05T23:34:27.046Z,15.06
2023-05-05T23:36:53.512Z,15.10
2023-05-05T23:39:19.902Z,15.01
2023-05-05T23:41:46.270Z,15.14
2023-05-05T23:44:13.102Z,14.89
2023-05-05T23:46:39.550Z,14.87
2023-05-05T23:49:06.019Z,14.92
2023-05-05T23:51:33.146Z,15.04
2023-05-05T23:53:59.547Z,14.75
2023-05-05T23:56:26.287Z,14.83
2023-05-05T23:58:53.137Z,14.62
